Time;durP1;ratioP1;P1;durP2;ratioP2;P2;SDS_P1;SDS_P2;PMS_P1;PMS_P2;Temp;Humidity;BMP_temperature;BMP_pressure;BME280_temperature;BME280_humidity;BME280_pressure;Samples;Min_cycle;Max_cycle;Signal;HPM_P1;HPM_P2
2022/12/12 00:01:18;;;;;;;21.08;11.70;;;0.70;99.90;;;;;;5092814;28;20044;-75
2022/12/12 00:03:44;;;;;;;24.25;10.82;;;0.60;99.90;;;;;;5093559;28;20046;-77
2022/12/12 00:06:10;;;;;;;19.55;10.75;;;0.60;99.90;;;;;;5093370;28;20126;-76
2022/12/12 00:08:36;;;;;;;22.17;11.02;;;0.60;99.90;;;;;;5093732;28;20040;-76
2022/12/12 00:11:03;;;;;;;19.52;11.00;;;0.60;99.90;;;;;;5093680;28;20087;-76
2022/12/12 00:13:29;;;;;;;23.33;10.90;;;1.60;99.90;;;;;;5093772;28;20048;-78
2022/12/12 00:15:54;;;;;;;19.60;10.65;;;0.50;99.90;;;;;;5093916;28;20085;-79
2022/12/12 00:18:20;;;;;;;19.98;10.15;;;0.80;99.90;;;;;;5093790;28;20118;-76
2022/12/12 00:20:54;;;;;;;25.88;11.35;;;0.50;99.90;;;;;;5096769;28;20113;-78
2022/12/12 00:23:22;;;;;;;19.77;10.95;;;0.50;99.90;;;;;;5097508;28;20124;-77
2022/12/12 00:25:59;;;;;;;21.20;10.95;;;0.50;99.90;;;;;;5097330;28;20048;-77
2022/12/12 00:28:26;;;;;;;26.15;11.20;;;1.10;99.90;;;;;;5097337;28;20215;-77
2022/12/12 00:30:52;;;;;;;22.45;11.68;;;0.50;99.90;;;;;;5097250;28;20048;-75
2022/12/12 00:33:18;;;;;;;20.05;10.75;;;0.50;99.90;;;;;;5096614;28;20040;-76
2022/12/12 00:35:44;;;;;;;22.25;12.07;;;0.50;99.90;;;;;;5097229;28;20044;-77
2022/12/12 00:38:10;;;;;;;24.93;12.47;;;0.60;99.90;;;;;;5097148;28;20082;-76
2022/12/12 00:40:36;;;;;;;23.08;11.60;;;0.60;99.90;;;;;;5097092;28;20310;-78
2022/12/12 00:43:02;;;;;;;22.33;11.05;;;0.50;99.90;;;;;;5097068;28;20181;-75
2022/12/12 00:45:28;;;;;;;22.80;11.53;;;0.50;99.90;;;;;;5097299;28;20400;-78
2022/12/12 00:47:54;;;;;;;20.85;11.40;;;0.50;99.90;;;;;;5095745;28;20274;-76
2022/12/12 00:50:20;;;;;;;21.33;11.55;;;0.50;99.90;;;;;;5096952;28;20395;-79
2022/12/12 00:52:46;;;;;;;24.30;12.20;;;0.50;99.90;;;;;;5096945;28;20043;-77
2022/12/12 00:55:12;;;;;;;23.05;11.77;;;0.60;99.90;;;;;;5097123;28;20056;-76
2022/12/12 00:57:37;;;;;;;20.02;10.93;;;0.60;99.90;;;;;;5097211;28;20472;-78
2022/12/12 01:00:06;;;;;;;19.88;10.57;;;0.60;99.90;;;;;;5097001;28;20047;-75
2022/12/12 01:02:31;;;;;;;23.35;10.85;;;0.60;99.90;;;;;;5096682;28;20404;-78
2022/12/12 01:04:57;;;;;;;24.98;11.70;;;0.50;99.90;;;;;;5096593;28;20036;-78
2022/12/12 01:07:23;;;;;;;21.70;11.05;;;0.50;99.90;;;;;;5096799;28;20058;-79
2022/12/12 01:09:48;;;;;;;22.48;11.02;;;0.50;99.90;;;;;;5096191;28;20086;-76
2022/12/12 01:12:14;;;;;;;23.73;12.32;;;0.50;99.90;;;;;;5096466;28;20448;-78
2022/12/12 01:14:40;;;;;;;22.40;11.75;;;0.50;99.90;;;;;;5096450;28;20400;-76
2022/12/12 01:17:06;;;;;;;23.27;11.55;;;0.50;99.90;;;;;;5096586;28;20051;-78
2022/12/12 01:19:31;;;;;;;25.15;11.38;;;1.50;99.90;;;;;;5096353;28;20040;-77
2022/12/12 01:21:57;;;;;;;23.55;10.70;;;0.50;99.90;;;;;;5096318;28;20098;-77
2022/12/12 01:24:22;;;;;;;23.48;12.32;;;0.50;99.90;;;;;;5095901;28;20051;-78
2022/12/12 01:26:48;;;;;;;22.38;11.65;;;0.50;99.90;;;;;;5095793;28;20060;-78
2022/12/12 01:29:14;;;;;;;21.85;10.95;;;0.50;99.90;;;;;;5096231;28;20504;-77
2022/12/12 01:31:39;;;;;;;22.15;11.82;;;0.50;99.90;;;;;;5095082;28;20036;-76
2022/12/12 01:34:05;;;;;;;21.42;10.38;;;0.50;99.90;;;;;;5094942;28;20111;-76
2022/12/12 01:36:31;;;;;;;23.98;11.95;;;0.50;99.90;;;;;;5096146;28;20491;-78
2022/12/12 01:38:59;;;;;;;21.98;11.20;;;0.50;99.90;;;;;;5095932;28;20047;-78
2022/12/12 01:41:25;;;;;;;22.95;11.63;;;0.50;99.90;;;;;;5095828;28;20040;-77
2022/12/12 01:43:51;;;;;;;24.08;12.15;;;0.50;99.90;;;;;;5095819;28;20044;-78
2022/12/12 01:46:32;;;;;;;25.08;12.27;;;1.60;99.90;;;;;;5095988;28;20126;-76
2022/12/12 01:49:06;;;;;;;22.45;11.77;;;0.50;99.90;;;;;;5095782;28;20044;-78
2022/12/12 01:51:32;;;;;;;22.13;12.10;;;0.50;99.90;;;;;;5094497;28;20143;-77
2022/12/12 01:54:04;;;;;;;22.45;11.10;;;0.50;99.90;;;;;;5094550;28;20119;-77
2022/12/12 01:56:31;;;;;;;20.27;11.35;;;0.40;99.90;;;;;;5095699;28;20088;-77
2022/12/12 01:58:59;;;;;;;22.88;11.80;;;0.40;99.90;;;;;;5095694;28;20039;-79
2022/12/12 02:01:25;;;;;;;23.52;11.88;;;0.50;99.90;;;;;;5095550;28;20086;-79
2022/12/12 02:03:51;;;;;;;22.75;12.13;;;0.90;99.90;;;;;;5095579;28;20438;-77
2022/12/12 02:06:25;;;;;;;26.40;12.60;;;0.50;99.90;;;;;;5095372;28;20495;-77
2022/12/12 02:08:53;;;;;;;21.35;11.65;;;0.50;99.90;;;;;;5094438;28;20466;-78
2022/12/12 02:11:19;;;;;;;18.73;11.05;;;0.50;99.90;;;;;;5095543;28;20093;-77
2022/12/12 02:13:45;;;;;;;26.92;11.75;;;0.40;99.90;;;;;;5095641;28;20051;-78
2022/12/12 02:16:48;;;;;;;25.67;12.32;;;0.50;99.90;;;;;;5095111;28;20036;-76
2022/12/12 02:20:03;;;;;;;22.65;11.23;;;0.50;99.90;;;;;;5095457;28;20082;-75
2022/12/12 02:22:41;;;;;;;22.25;10.95;;;0.50;99.90;;;;;;5095271;28;20118;-76
2022/12/12 02:25:33;;;;;;;22.52;12.23;;;0.50;99.90;;;;;;5094299;28;20056;-76
2022/12/12 02:28:28;;;;;;;18.70;10.95;;;0.50;99.90;;;;;;5094846;28;20059;-75
2022/12/12 02:31:21;;;;;;;26.02;12.25;;;0.50;99.90;;;;;;5093487;28;20054;-77
2022/12/12 02:34:22;;;;;;;21.40;11.32;;;0.50;99.90;;;;;;5094772;28;20055;-78
2022/12/12 02:36:59;;;;;;;21.65;11.00;;;0.50;99.90;;;;;;5093991;28;20052;-77
2022/12/12 02:40:02;;;;;;;21.33;11.20;;;0.40;99.90;;;;;;5094707;28;20052;-75
2022/12/12 02:42:43;;;;;;;22.20;12.05;;;0.50;99.90;;;;;;5094524;28;20492;-76
2022/12/12 02:45:38;;;;;;;17.58;10.55;;;0.50;99.90;;;;;;5094744;28;20487;-79
2022/12/12 02:48:19;;;;;;;23.77;11.52;;;0.40;99.90;;;;;;5094635;28;20048;-77
2022/12/12 02:50:47;;;;;;;24.08;11.57;;;0.40;99.90;;;;;;5094684;28;20101;-79
2022/12/12 02:53:17;;;;;;;19.23;10.27;;;0.40;99.90;;;;;;5093318;28;20047;-76
2022/12/12 02:55:43;;;;;;;20.33;10.48;;;0.40;99.90;;;;;;5094760;28;20123;-78
2022/12/12 02:58:09;;;;;;;18.75;10.05;;;0.40;99.90;;;;;;5094233;28;20123;-78
2022/12/12 03:00:47;;;;;;;21.60;10.65;;;0.40;99.90;;;;;;5094306;28;20406;-76
2022/12/12 03:10:12;;;;;;;22.48;10.68;;;0.50;99.90;;;;;;5094471;28;20048;-76
2022/12/12 03:12:57;;;;;;;17.52;9.40;;;0.50;99.90;;;;;;5094251;28;20039;-77
2022/12/12 03:15:30;;;;;;;20.05;10.57;;;0.50;99.90;;;;;;5094213;28;20087;-76
2022/12/12 03:18:13;;;;;;;20.73;11.02;;;0.50;99.90;;;;;;5094404;28;20040;-78
2022/12/12 03:20:54;;;;;;;17.25;9.75;;;0.40;99.90;;;;;;5094092;28;20142;-76
2022/12/12 03:23:33;;;;;;;19.98;10.20;;;0.50;99.90;;;;;;5094100;28;20079;-76
2022/12/12 03:26:06;;;;;;;21.40;10.93;;;0.50;99.90;;;;;;5093713;28;20036;-78
2022/12/12 03:28:34;;;;;;;19.10;9.85;;;0.50;99.90;;;;;;5094017;28;20097;-78
2022/12/12 03:31:06;;;;;;;22.60;11.20;;;0.50;99.90;;;;;;5093981;28;20066;-78
2022/12/12 03:33:52;;;;;;;21.25;11.18;;;0.90;99.90;;;;;;5094068;28;20410;-77
2022/12/12 03:36:26;;;;;;;19.52;10.43;;;0.50;99.90;;;;;;5093886;28;20046;-78
2022/12/12 03:39:02;;;;;;;18.45;10.32;;;0.50;99.90;;;;;;5093906;28;20043;-76
2022/12/12 03:41:43;;;;;;;22.60;11.25;;;0.50;99.90;;;;;;5093825;28;20079;-75
2022/12/12 03:44:41;;;;;;;22.42;10.88;;;0.50;99.90;;;;;;5092758;28;20124;-78
2022/12/12 03:47:15;;;;;;;18.60;10.57;;;0.50;99.90;;;;;;5093765;28;20521;-75
2022/12/12 03:49:47;;;;;;;21.40;10.75;;;0.40;99.90;;;;;;5093796;28;20091;-77
2022/12/12 03:52:29;;;;;;;23.38;10.82;;;0.50;99.90;;;;;;5092727;28;20046;-78
2022/12/12 03:55:06;;;;;;;25.60;11.40;;;0.50;99.90;;;;;;5097479;28;20048;-77
2022/12/12 03:57:47;;;;;;;19.03;10.17;;;0.50;99.90;;;;;;5100505;28;20047;-75
2022/12/12 04:00:14;;;;;;;19.17;10.65;;;0.50;99.90;;;;;;5100517;28;20055;-78
2022/12/12 04:02:50;;;;;;;;;;;0.50;99.90;;;;;;5100751;28;20048;-77
2022/12/12 04:06:25;;;;;;;19.20;10.88;;;0.50;99.90;;;;;;5100379;28;19920;-77
2022/12/12 04:08:27;;;;;;;17.98;10.10;;;0.50;99.90;;;;;;5100175;28;20117;-76
2022/12/12 04:14:05;;;;;;;20.25;10.68;;;0.50;99.90;;;;;;5100134;28;20051;-77
2022/12/12 04:16:36;;;;;;;18.52;9.80;;;0.50;99.90;;;;;;5100265;28;20124;-78
2022/12/12 04:23:31;;;;;;;18.70;9.77;;;0.50;99.90;;;;;;5100149;28;20052;-77
2022/12/12 04:25:34;;;;;;;18.08;9.32;;;0.50;99.90;;;;;;5086250;28;20415;-79
2022/12/12 04:28:04;;;;;;;17.95;10.10;;;0.50;99.90;;;;;;5099960;28;20060;-79
2022/12/12 04:30:31;;;;;;;17.63;10.82;;;0.50;99.90;;;;;;5099889;28;20058;-77
2022/12/12 04:33:08;;;;;;;19.33;10.80;;;0.50;99.90;;;;;;5099870;28;20048;-76
2022/12/12 04:35:44;;;;;;;19.52;10.48;;;0.50;99.90;;;;;;5099263;28;20048;-76
2022/12/12 04:38:15;;;;;;;19.17;10.32;;;0.50;99.90;;;;;;5100060;28;20054;-77
2022/12/12 04:40:44;;;;;;;21.30;11.20;;;0.50;99.90;;;;;;5099993;28;20074;-78
2022/12/12 04:43:15;;;;;;;20.05;10.57;;;0.50;99.90;;;;;;5100005;28;20063;-78
2022/12/12 04:45:52;;;;;;;21.27;10.63;;;0.50;99.90;;;;;;5099976;28;20123;-77
2022/12/12 04:48:20;;;;;;;;;;;0.50;99.90;;;;;;5100212;28;20079;-79
2022/12/12 04:50:49;;;;;;;18.43;9.77;;;0.50;99.90;;;;;;5100124;28;19965;-77
2022/12/12 04:53:19;;;;;;;17.48;9.95;;;0.50;99.90;;;;;;5099692;28;20293;-78
2022/12/12 04:55:50;;;;;;;20.20;9.90;;;0.50;99.90;;;;;;5099871;28;20044;-78
2022/12/12 04:58:16;;;;;;;17.63;10.13;;;0.50;99.90;;;;;;5100416;28;20058;-76
2022/12/12 05:00:56;;;;;;;19.20;10.37;;;0.50;99.90;;;;;;5099902;28;20147;-78
2022/12/12 05:03:47;;;;;;;21.17;9.88;;;0.50;99.90;;;;;;5099847;28;20050;-76
2022/12/12 05:06:18;;;;;;;19.48;9.57;;;0.50;99.90;;;;;;5094261;28;20095;-79
2022/12/12 05:08:47;;;;;;;19.75;9.75;;;0.50;99.90;;;;;;5096602;28;20039;-77
2022/12/12 05:11:17;;;;;;;18.23;10.25;;;0.50;99.90;;;;;;5095256;28;20043;-78
2022/12/12 05:13:43;;;;;;;15.32;9.32;;;0.50;99.90;;;;;;5096496;28;20036;-77
2022/12/12 05:16:20;;;;;;;19.08;10.05;;;0.50;99.90;;;;;;5096585;28;20032;-77
2022/12/12 05:18:46;;;;;;;19.45;10.55;;;0.50;99.90;;;;;;5096519;28;20048;-78
2022/12/12 05:21:12;;;;;;;21.93;10.63;;;0.50;99.90;;;;;;5096390;28;20105;-77
2022/12/12 05:23:37;;;;;;;19.13;10.50;;;0.50;99.90;;;;;;5078381;28;20039;-76
2022/12/12 05:26:15;;;;;;;19.65;10.65;;;0.50;99.90;;;;;;5095900;28;20129;-76
2022/12/12 05:28:40;;;;;;;;;;;0.50;99.90;;;;;;5096662;28;20048;-78
2022/12/12 05:31:06;;;;;;;19.13;10.50;;;0.50;99.90;;;;;;5094908;28;19920;-76
2022/12/12 05:33:32;;;;;;;22.25;10.60;;;0.50;99.90;;;;;;5096482;28;20037;-78
2022/12/12 05:35:57;;;;;;;18.88;11.02;;;0.50;99.90;;;;;;5096056;28;20043;-77
2022/12/12 05:38:23;;;;;;;22.33;10.93;;;0.50;99.90;;;;;;5096023;28;20446;-76
2022/12/12 05:40:49;;;;;;;17.95;10.20;;;0.60;99.90;;;;;;5095957;28;20135;-78
2022/12/12 05:43:15;;;;;;;16.55;9.80;;;0.50;99.90;;;;;;5095677;28;20521;-77
2022/12/12 05:45:41;;;;;;;19.38;10.23;;;0.40;99.90;;;;;;5095501;28;20048;-77
2022/12/12 05:48:06;;;;;;;20.63;11.50;;;0.40;99.90;;;;;;5095197;28;20044;-77
2022/12/12 05:50:32;;;;;;;15.85;9.85;;;0.40;99.90;;;;;;5096050;28;20059;-78
2022/12/12 05:52:58;;;;;;;21.38;10.55;;;0.40;99.90;;;;;;5095799;28;20044;-78
2022/12/12 05:55:23;;;;;;;19.33;10.27;;;0.40;99.90;;;;;;5095747;28;20472;-75
2022/12/12 05:57:49;;;;;;;19.35;10.82;;;0.40;99.90;;;;;;5095645;28;20361;-76
2022/12/12 06:00:14;;;;;;;22.70;11.35;;;0.40;99.90;;;;;;5095611;28;20047;-76
2022/12/12 06:02:40;;;;;;;18.38;9.88;;;0.40;99.90;;;;;;5095619;28;20065;-76
2022/12/12 06:05:06;;;;;;;18.83;10.00;;;0.40;99.90;;;;;;5095545;28;20158;-78
2022/12/12 06:07:32;;;;;;;18.38;9.90;;;0.40;99.90;;;;;;5095195;28;20040;-77
2022/12/12 06:09:57;;;;;;;16.63;9.85;;;0.40;99.90;;;;;;5095409;28;20048;-77
2022/12/12 06:12:23;;;;;;;18.88;10.13;;;0.40;99.90;;;;;;5095338;28;20052;-78
2022/12/12 06:14:48;;;;;;;18.67;9.70;;;0.40;99.90;;;;;;5095257;28;20044;-76
2022/12/12 06:17:14;;;;;;;20.27;10.45;;;0.40;99.90;;;;;;5094795;28;20127;-75
2022/12/12 06:19:40;;;;;;;17.30;10.23;;;0.40;99.90;;;;;;5095159;28;20098;-76
2022/12/12 06:22:05;;;;;;;18.15;10.32;;;0.40;99.90;;;;;;5095150;28;20127;-78
2022/12/12 06:24:31;;;;;;;19.10;10.25;;;0.40;99.90;;;;;;5095051;28;20040;-78
2022/12/12 06:26:56;;;;;;;21.88;11.27;;;0.40;99.90;;;;;;5094858;28;20055;-77
2022/12/12 06:29:22;;;;;;;21.40;11.98;;;0.30;99.90;;;;;;5095063;28;20039;-78
2022/12/12 06:31:47;;;;;;;20.40;10.95;;;0.30;99.90;;;;;;5093523;28;20066;-76
2022/12/12 06:34:13;;;;;;;24.85;12.18;;;0.20;99.90;;;;;;5095354;28;20459;-77
2022/12/12 06:36:39;;;;;;;23.35;13.38;;;0.30;99.90;;;;;;5094936;28;20500;-80
2022/12/12 06:39:05;;;;;;;25.77;13.57;;;0.20;99.90;;;;;;5095107;28;20044;-78
2022/12/12 06:41:31;;;;;;;26.65;14.05;;;0.20;99.90;;;;;;5094918;28;20542;-77
2022/12/12 06:43:56;;;;;;;25.02;12.98;;;0.20;99.90;;;;;;5094904;28;20055;-76
2022/12/12 06:46:25;;;;;;;28.83;15.13;;;0.20;99.90;;;;;;5094206;28;20040;-76
2022/12/12 06:48:52;;;;;;;26.83;13.63;;;0.10;99.90;;;;;;5094470;28;20476;-74
2022/12/12 06:51:19;;;;;;;;;;;0.10;99.90;;;;;;5095098;28;20044;-74
2022/12/12 06:53:45;;;;;;;27.30;15.00;;;0.10;99.90;;;;;;5094572;28;20359;-75
2022/12/12 06:56:15;;;;;;;24.08;12.80;;;0.10;99.90;;;;;;5094338;28;20079;-74
2022/12/12 06:58:42;;;;;;;26.63;13.98;;;0.00;99.90;;;;;;5094296;28;20055;-75
2022/12/12 07:01:09;;;;;;;28.98;14.77;;;-0.10;99.90;;;;;;5094452;28;20044;-77
2022/12/12 07:03:35;;;;;;;28.48;14.20;;;-0.10;99.90;;;;;;5094335;28;20048;-75
2022/12/12 07:06:00;;;;;;;26.42;14.38;;;-0.20;99.90;;;;;;5094262;28;20032;-75
2022/12/12 07:08:27;;;;;;;26.88;13.90;;;-0.30;99.90;;;;;;5094343;28;20438;-76
2022/12/12 07:10:53;;;;;;;25.35;13.20;;;-0.40;99.90;;;;;;5094338;28;20040;-76
2022/12/12 07:13:19;;;;;;;29.40;14.93;;;-0.50;99.90;;;;;;5094074;28;20483;-77
2022/12/12 07:15:49;;;;;;;26.80;14.05;;;-0.50;99.90;;;;;;5093917;28;20046;-75
2022/12/12 07:18:16;;;;;;;28.73;13.63;;;-0.60;99.90;;;;;;5094286;28;20460;-76
2022/12/12 07:20:45;;;;;;;28.70;14.20;;;-0.60;99.90;;;;;;5094208;28;20121;-76
2022/12/12 07:23:10;;;;;;;28.55;14.07;;;-0.70;99.90;;;;;;5094162;28;20040;-76
2022/12/12 07:25:38;;;;;;;26.75;14.35;;;-0.80;99.90;;;;;;5094038;28;20062;-74
2022/12/12 07:28:04;;;;;;;29.60;15.13;;;-0.80;99.90;;;;;;5094394;28;20048;-75
2022/12/12 07:30:30;;;;;;;35.73;15.07;;;-0.90;99.90;;;;;;5093137;28;20044;-75
2022/12/12 07:32:55;;;;;;;30.23;14.68;;;-0.90;99.90;;;;;;5093880;28;20364;-77
2022/12/12 07:35:22;;;;;;;36.00;15.85;;;-1.00;99.90;;;;;;5094044;28;20051;-77
2022/12/12 07:37:48;;;;;;;29.73;13.93;;;-1.00;99.90;;;;;;5092671;28;20043;-75
2022/12/12 07:40:14;;;;;;;36.80;14.97;;;-1.10;99.90;;;;;;5093842;28;20047;-76
2022/12/12 07:42:39;;;;;;;32.97;14.40;;;-0.70;99.90;;;;;;5093697;28;20044;-76
2022/12/12 07:45:06;;;;;;;28.80;13.88;;;-0.60;99.90;;;;;;5093538;28;20060;-77
2022/12/12 07:47:31;;;;;;;28.30;14.20;;;-1.20;99.90;;;;;;5093362;28;20106;-77
2022/12/12 07:49:57;;;;;;;27.42;13.43;;;-1.30;99.90;;;;;;5093870;28;20048;-76
2022/12/12 07:52:23;;;;;;;28.95;13.70;;;-1.30;99.90;;;;;;5093688;28;20044;-75
2022/12/12 07:54:48;;;;;;;32.00;14.32;;;-0.30;99.90;;;;;;5093640;28;20047;-76
2022/12/12 07:57:14;;;;;;;28.17;15.43;;;-1.40;99.90;;;;;;5092530;28;20063;-80
2022/12/12 07:59:40;;;;;;;31.83;15.30;;;-1.40;99.90;;;;;;5092531;28;20094;-77
2022/12/12 08:02:05;;;;;;;32.17;14.00;;;-1.40;99.90;;;;;;5093854;28;20052;-79
2022/12/12 08:04:31;;;;;;;29.05;14.50;;;-1.50;99.90;;;;;;5093540;28;20101;-79
2022/12/12 08:06:57;;;;;;;31.48;15.05;;;-1.30;99.90;;;;;;5093562;28;20046;-77
2022/12/12 08:09:24;;;;;;;35.30;15.00;;;-1.50;99.90;;;;;;5092965;28;20044;-75
2022/12/12 08:11:49;;;;;;;29.25;15.32;;;-1.50;99.90;;;;;;5092140;28;20048;-75
2022/12/12 08:14:15;;;;;;;33.25;14.98;;;-1.50;99.90;;;;;;5092563;28;20373;-77
2022/12/12 08:16:41;;;;;;;31.58;14.57;;;-1.50;99.90;;;;;;5093588;28;20442;-74
2022/12/12 08:19:07;;;;;;;29.52;14.57;;;-1.50;99.90;;;;;;5093270;28;20515;-76
2022/12/12 08:21:32;;;;;;;32.72;14.45;;;-1.50;99.90;;;;;;5092402;28;20040;-78
2022/12/12 08:24:00;;;;;;;27.70;14.05;;;-1.40;99.90;;;;;;5093337;28;20091;-75
2022/12/12 08:26:27;;;;;;;29.10;14.70;;;-1.50;99.90;;;;;;5093223;28;20156;-79
2022/12/12 08:28:53;;;;;;;30.52;14.68;;;-1.60;99.90;;;;;;5093026;28;20420;-75
2022/12/12 08:31:20;;;;;;;31.57;15.07;;;-1.60;99.90;;;;;;5093483;28;20109;-75
2022/12/12 08:33:52;;;;;;;34.80;15.85;;;-1.30;99.90;;;;;;5093337;28;20080;-75
2022/12/12 08:36:21;;;;;;;34.50;15.20;;;-1.70;99.90;;;;;;5093371;28;20047;-77
2022/12/12 08:38:47;;;;;;;29.70;15.02;;;-1.60;99.90;;;;;;5093104;28;20040;-74
2022/12/12 08:41:13;;;;;;;29.65;15.30;;;-1.60;99.90;;;;;;5094061;28;20040;-78
2022/12/12 08:43:40;;;;;;;35.57;15.67;;;-1.10;99.90;;;;;;5097199;28;20396;-77
2022/12/12 08:46:06;;;;;;;;;;;-1.60;99.90;;;;;;5097198;28;20044;-77
2022/12/12 08:48:32;;;;;;;39.97;16.40;;;-1.50;99.90;;;;;;5095682;28;19981;-76
2022/12/12 08:50:58;;;;;;;33.85;15.65;;;-1.50;99.90;;;;;;5095379;28;20052;-78
2022/12/12 08:53:25;;;;;;;31.98;15.45;;;-1.40;99.90;;;;;;5096947;28;20388;-75
2022/12/12 08:55:50;;;;;;;32.08;14.73;;;-1.40;99.90;;;;;;5096807;28;20040;-76
2022/12/12 08:58:16;;;;;;;36.28;14.65;;;-1.40;99.90;;;;;;5096634;28;20097;-75
2022/12/12 09:00:42;;;;;;;36.70;15.43;;;-1.30;99.90;;;;;;5096610;28;20040;-75
2022/12/12 09:03:08;;;;;;;38.65;17.23;;;-1.30;99.90;;;;;;5096478;28;20051;-77
2022/12/12 09:05:33;;;;;;;35.53;16.80;;;-1.30;99.90;;;;;;5096684;28;20080;-77
2022/12/12 09:07:59;;;;;;;35.35;17.15;;;-1.40;99.90;;;;;;5096360;28;20048;-75
2022/12/12 09:10:26;;;;;;;42.70;17.88;;;-1.30;99.90;;;;;;5096070;28;20391;-75
2022/12/12 09:12:52;;;;;;;43.13;18.20;;;-1.20;99.90;;;;;;5096389;28;20055;-76
2022/12/12 09:15:18;;;;;;;35.15;17.38;;;-0.80;99.90;;;;;;5096543;28;20036;-75
2022/12/12 09:17:43;;;;;;;40.00;17.23;;;-1.00;99.90;;;;;;5096218;28;20075;-77
2022/12/12 09:20:12;;;;;;;37.70;18.08;;;-0.80;99.90;;;;;;5095924;28;20498;-75
2022/12/12 09:22:37;;;;;;;41.47;18.80;;;-0.80;99.90;;;;;;5096281;28;20040;-76
2022/12/12 09:25:04;;;;;;;41.33;18.63;;;-0.70;99.90;;;;;;5096124;28;20387;-77
2022/12/12 09:27:30;;;;;;;43.38;19.08;;;-0.60;99.90;;;;;;5096133;28;20063;-75
2022/12/12 09:29:56;;;;;;;38.25;18.55;;;-0.60;99.90;;;;;;5095819;28;20043;-75
2022/12/12 09:32:22;;;;;;;41.97;18.85;;;-0.50;99.90;;;;;;5096116;28;20048;-76
2022/12/12 09:34:48;;;;;;;43.42;18.08;;;-0.40;99.90;;;;;;5095944;28;20444;-77
2022/12/12 09:37:13;;;;;;;43.63;18.40;;;-0.30;99.90;;;;;;5096133;28;20105;-77
2022/12/12 09:39:39;;;;;;;46.25;19.67;;;-0.30;99.90;;;;;;5095247;28;20043;-76
2022/12/12 09:42:24;;;;;;;45.35;19.90;;;-0.20;99.90;;;;;;5096077;28;20097;-78
2022/12/12 09:44:53;;;;;;;41.60;18.98;;;-0.10;99.90;;;;;;5095761;28;20135;-76
2022/12/12 09:47:35;;;;;;;44.20;20.33;;;-0.10;99.90;;;;;;5095735;28;20047;-75
2022/12/12 09:50:11;;;;;;;43.72;20.15;;;0.00;99.90;;;;;;5095443;28;20044;-75
2022/12/12 09:52:37;;;;;;;44.15;19.60;;;0.10;99.90;;;;;;5094876;28;20046;-76
2022/12/12 09:55:24;;;;;;;44.17;19.38;;;0.10;99.90;;;;;;5095588;28;20123;-75
2022/12/12 09:58:19;;;;;;;47.60;20.55;;;0.20;99.90;;;;;;5095675;28;20044;-77
2022/12/12 10:01:15;;;;;;;45.63;20.10;;;0.20;99.90;;;;;;5080162;28;20059;-77
2022/12/12 10:04:09;;;;;;;43.33;19.15;;;0.30;99.90;;;;;;5095871;28;20040;-81
2022/12/12 10:06:49;;;;;;;39.55;19.52;;;0.30;99.90;;;;;;5095221;28;20052;-75
2022/12/12 10:09:24;;;;;;;48.50;20.75;;;0.40;99.90;;;;;;5095019;28;20129;-75
2022/12/12 10:11:53;;;;;;;43.28;18.50;;;0.50;99.90;;;;;;5095036;28;20048;-75
2022/12/12 10:14:34;;;;;;;43.45;19.75;;;0.50;99.90;;;;;;5091989;28;20553;-78
2022/12/12 10:17:02;;;;;;;43.45;20.67;;;0.60;99.90;;;;;;5094550;28;20506;-74
2022/12/12 10:19:31;;;;;;;42.22;20.02;;;0.60;99.90;;;;;;5095015;28;20105;-75
2022/12/12 10:22:04;;;;;;;47.95;20.58;;;0.60;99.90;;;;;;5094953;28;20040;-76
2022/12/12 10:24:38;;;;;;;41.63;19.42;;;0.60;99.90;;;;;;5091242;28;20048;-74
2022/12/12 10:27:12;;;;;;;40.60;18.25;;;0.70;99.90;;;;;;5074556;28;20107;-75
2022/12/12 10:29:45;;;;;;;41.13;19.30;;;0.70;99.90;;;;;;5073121;28;20476;-75
2022/12/12 10:32:32;;;;;;;43.47;18.88;;;0.80;99.90;;;;;;5074466;28;20083;-75
2022/12/12 10:35:18;;;;;;;40.77;19.13;;;0.80;99.90;;;;;;5074366;28;20048;-74
2022/12/12 10:38:17;;;;;;;41.92;20.75;;;0.90;99.90;;;;;;5074767;28;20076;-75
2022/12/12 10:40:56;;;;;;;49.15;19.90;;;0.90;99.90;;;;;;5074575;28;20052;-76
2022/12/12 10:43:48;;;;;;;44.53;19.92;;;0.90;99.90;;;;;;5074398;28;20523;-76
2022/12/12 10:46:23;;;;;;;43.55;20.88;;;0.90;99.90;;;;;;5074271;28;20052;-75
2022/12/12 10:48:49;;;;;;;47.03;20.83;;;1.00;99.90;;;;;;5074020;28;20084;-75
2022/12/12 10:51:19;;;;;;;43.75;19.50;;;1.00;99.90;;;;;;5074508;28;20052;-75
2022/12/12 10:53:44;;;;;;;37.50;19.75;;;1.10;99.90;;;;;;5073785;28;20097;-75
2022/12/12 10:56:18;;;;;;;37.28;19.17;;;1.10;99.90;;;;;;5073693;28;20123;-76
2022/12/12 10:58:54;;;;;;;40.85;19.45;;;1.10;99.90;;;;;;5074078;28;20392;-74
2022/12/12 11:01:24;;;;;;;39.20;17.55;;;1.10;99.90;;;;;;5073710;28;20036;-74
2022/12/12 11:03:51;;;;;;;38.08;18.30;;;1.10;99.90;;;;;;5073774;28;20385;-73
2022/12/12 11:06:31;;;;;;;38.88;17.30;;;1.10;99.90;;;;;;5073581;28;20048;-74
2022/12/12 11:09:04;;;;;;;35.65;16.73;;;1.10;99.90;;;;;;5073867;28;20056;-74
2022/12/12 11:11:30;;;;;;;33.70;16.55;;;1.10;99.90;;;;;;5074070;28;20084;-73
2022/12/12 11:13:59;;;;;;;35.17;17.38;;;1.10;99.90;;;;;;5073111;28;20113;-75
2022/12/12 11:16:38;;;;;;;35.75;18.13;;;1.10;99.90;;;;;;5073661;28;20090;-76
2022/12/12 11:19:26;;;;;;;40.92;18.10;;;1.20;99.90;;;;;;5089647;28;20055;-78
2022/12/12 11:21:54;;;;;;;40.83;16.33;;;1.20;99.90;;;;;;5093453;28;20060;-75
2022/12/12 11:24:44;;;;;;;36.42;17.25;;;1.20;99.90;;;;;;5093462;28;20105;-74
2022/12/12 11:27:20;;;;;;;40.08;18.17;;;1.30;99.90;;;;;;5093597;28;20488;-76
2022/12/12 11:29:50;;;;;;;36.15;17.83;;;1.30;99.90;;;;;;5093990;28;20392;-80
2022/12/12 11:32:29;;;;;;;36.95;17.33;;;1.30;99.90;;;;;;5100068;28;20044;-76
2022/12/12 11:35:00;;;;;;;34.35;16.02;;;1.30;99.90;;;;;;5093266;28;20052;-76
2022/12/12 11:37:36;;;;;;;34.03;16.63;;;1.40;99.90;;;;;;5093707;28;20404;-77
2022/12/12 11:40:04;;;;;;;34.85;16.35;;;1.30;99.90;;;;;;5093799;28;20047;-76
2022/12/12 11:42:32;;;;;;;32.83;16.23;;;1.30;99.90;;;;;;5093559;28;20062;-76
2022/12/12 11:45:04;;;;;;;29.48;14.10;;;1.40;99.90;;;;;;5093002;28;20476;-77
2022/12/12 11:47:37;;;;;;;29.95;14.63;;;1.50;99.90;;;;;;5093100;28;20051;-77
2022/12/12 11:50:17;;;;;;;31.60;15.25;;;1.50;99.90;;;;;;5093663;28;20040;-75
2022/12/12 11:52:42;;;;;;;26.83;14.48;;;1.60;99.90;;;;;;5093873;28;20104;-76
2022/12/12 11:55:17;;;;;;;26.63;14.50;;;1.60;99.90;;;;;;5093322;28;20040;-76
2022/12/12 11:58:09;;;;;;;26.13;13.68;;;1.70;99.90;;;;;;5093301;28;20044;-76
2022/12/12 12:00:53;;;;;;;26.20;12.88;;;1.70;99.90;;;;;;5093974;28;20044;-74
2022/12/12 12:03:40;;;;;;;30.48;13.10;;;1.70;99.90;;;;;;5093659;28;20048;-71
2022/12/12 12:06:27;;;;;;;24.65;13.07;;;1.70;99.90;;;;;;5093494;28;20044;-74
2022/12/12 12:08:52;;;;;;;26.90;12.05;;;1.80;99.90;;;;;;5094014;28;20052;-73
2022/12/12 12:12:02;;;;;;;24.50;11.70;;;1.70;99.90;;;;;;5093578;28;20158;-72
2022/12/12 12:14:50;;;;;;;22.55;11.15;;;1.70;99.90;;;;;;5093528;28;20122;-72
2022/12/12 12:17:21;;;;;;;20.90;11.18;;;1.70;99.90;;;;;;5097982;28;20044;-72
2022/12/12 12:20:11;;;;;;;20.50;11.13;;;1.90;99.90;;;;;;5097768;28;20047;-72
2022/12/12 12:23:02;;;;;;;19.40;10.77;;;1.70;99.90;;;;;;5097423;28;20127;-73
2022/12/12 12:25:50;;;;;;;19.75;10.05;;;1.70;99.90;;;;;;5088229;28;20052;-71
2022/12/12 12:28:49;;;;;;;17.08;10.13;;;1.70;99.90;;;;;;5097676;28;20105;-72
2022/12/12 12:31:44;;;;;;;17.80;9.55;;;1.70;99.90;;;;;;5097282;28;20462;-72
2022/12/12 12:34:26;;;;;;;16.55;9.88;;;1.70;99.90;;;;;;5097781;28;20434;-72
2022/12/12 12:37:11;;;;;;;17.63;9.23;;;1.70;99.90;;;;;;5097302;28;20041;-73
2022/12/12 12:39:54;;;;;;;17.98;9.65;;;1.70;99.90;;;;;;5095492;28;20047;-72
2022/12/12 12:42:54;;;;;;;18.38;9.35;;;2.50;99.90;;;;;;5096838;28;20142;-73
2022/12/12 12:45:44;;;;;;;19.38;9.85;;;1.80;99.90;;;;;;5096846;28;20146;-72
2022/12/12 12:48:32;;;;;;;18.50;9.50;;;1.80;99.90;;;;;;5097068;28;20114;-79
2022/12/12 12:51:17;;;;;;;20.00;11.13;;;1.80;99.90;;;;;;5096970;28;20050;-73
2022/12/12 12:53:53;;;;;;;20.27;10.88;;;1.80;99.90;;;;;;5096921;28;20048;-73
2022/12/12 12:56:21;;;;;;;21.90;11.35;;;1.80;99.90;;;;;;5096428;28;20044;-72
2022/12/12 12:58:48;;;;;;;21.55;10.65;;;1.80;99.90;;;;;;5096754;28;20043;-73
2022/12/12 13:01:25;;;;;;;21.65;12.10;;;1.80;99.90;;;;;;5096548;28;20101;-73
2022/12/12 13:04:01;;;;;;;24.08;12.52;;;1.80;99.90;;;;;;5096421;28;20480;-72
2022/12/12 13:07:03;;;;;;;23.58;12.18;;;1.80;99.90;;;;;;5096543;28;20047;-72
2022/12/12 13:09:45;;;;;;;24.80;11.77;;;1.80;99.90;;;;;;5096253;28;20032;-73
2022/12/12 13:12:31;;;;;;;25.45;13.50;;;1.80;99.90;;;;;;5096324;28;20123;-73
2022/12/12 13:15:05;;;;;;;28.23;14.98;;;1.70;99.90;;;;;;5096269;28;20503;-73
2022/12/12 13:18:04;;;;;;;28.05;14.63;;;1.70;99.90;;;;;;5096299;28;20056;-73